Time;durP1;ratioP1;P1;durP2;ratioP2;P2;SDS_P1;SDS_P2;PMS_P1;PMS_P2;Temp;Humidity;BMP_temperature;BMP_pressure;BME280_temperature;BME280_humidity;BME280_pressure;Samples;Min_cycle;Max_cycle;Signal;HPM_P1;HPM_P2
2021/11/30 00:02:21;;;;;;;16.17;4.47;;;;;;;11.31;48.49;101066.84;5043897;28;20048;-55
2021/11/30 00:04:46;;;;;;;9.93;4.72;;;;;;;11.30;48.56;101060.66;5042136;28;20498;-55
2021/11/30 00:07:12;;;;;;;7.10;4.18;;;;;;;11.30;47.90;101062.50;5043050;28;20390;-55
2021/11/30 00:12:14;;;;;;;13.85;4.95;;;;;;;11.32;48.77;101052.47;5041621;28;20029;-55
2021/11/30 00:14:41;;;;;;;10.07;4.55;;;;;;;11.33;48.23;101038.97;5041770;28;20021;-55
2021/11/30 00:17:08;;;;;;;9.75;4.97;;;;;;;11.30;48.65;101033.84;5042399;28;20021;-55
2021/11/30 00:19:34;;;;;;;14.70;5.55;;;;;;;11.34;48.23;101034.41;5042537;28;20093;-55
2021/11/30 00:22:00;;;;;;;10.90;3.63;;;;;;;11.33;48.17;101016.66;5036730;28;20096;-55
2021/11/30 00:24:29;;;;;;;9.98;3.97;;;;;;;11.35;48.24;101017.34;5032009;28;20051;-55
2021/11/30 00:26:55;;;;;;;14.10;4.22;;;;;;;11.34;48.15;101013.81;5042599;28;20021;-55
2021/11/30 00:29:21;;;;;;;10.95;3.85;;;;;;;11.34;48.17;101003.09;5039912;28;20080;-55
2021/11/30 00:31:46;;;;;;;10.20;3.78;;;;;;;11.33;48.96;101008.59;5043064;28;20033;-55
2021/11/30 00:34:12;;;;;;;8.85;3.60;;;;;;;11.35;47.89;101002.13;5042387;28;20029;-55
2021/11/30 00:36:37;;;;;;;8.95;3.83;;;;;;;11.37;48.18;101004.66;5041675;28;20506;-55
2021/11/30 00:39:03;;;;;;;11.88;4.32;;;;;;;11.36;47.97;100995.75;5043617;28;20520;-55
2021/11/30 00:41:28;;;;;;;11.25;3.67;;;;;;;11.35;48.07;100996.75;5041818;28;20505;-55
2021/11/30 00:43:55;;;;;;;10.88;3.50;;;;;;;11.34;48.40;100991.50;5041443;28;20063;-55
2021/11/30 00:46:32;;;;;;;10.02;3.70;;;;;;;11.37;48.14;100997.47;5041453;28;20040;-55
2021/11/30 00:48:58;;;;;;;7.35;3.13;;;;;;;11.38;48.12;100990.28;5041530;28;20061;-55
2021/11/30 00:51:23;;;;;;;15.30;3.53;;;;;;;11.38;48.52;100988.47;5043401;28;20071;-55
2021/11/30 00:53:50;;;;;;;9.82;4.20;;;;;;;11.38;48.00;100982.25;5041793;28;20359;-55
2021/11/30 00:56:16;;;;;;;16.70;4.43;;;;;;;11.35;47.62;100987.84;5042045;28;20466;-55
2021/11/30 00:58:42;;;;;;;9.82;3.80;;;;;;;11.34;48.57;100986.16;5042951;28;20028;-55
2021/11/30 01:01:07;;;;;;;10.00;3.95;;;;;;;11.32;47.97;100980.06;5041516;28;20030;-55
2021/11/30 01:03:33;;;;;;;6.70;3.58;;;;;;;11.35;48.02;100982.50;5042072;28;20047;-55
2021/11/30 01:05:58;;;;;;;11.63;3.58;;;;;;;11.35;47.81;100966.41;5042983;28;20489;-55
2021/11/30 01:08:24;;;;;;;10.05;3.42;;;;;;;11.36;48.19;100960.06;5041043;28;20394;-55
2021/11/30 01:10:49;;;;;;;7.97;3.55;;;;;;;11.38;47.52;100963.47;5042339;28;20052;-55
2021/11/30 01:13:15;;;;;;;11.07;4.00;;;;;;;11.40;47.89;100965.03;5051994;28;20359;-55
2021/11/30 01:15:42;;;;;;;11.40;4.22;;;;;;;11.43;48.00;100966.59;5053453;28;20028;-55
2021/11/30 01:18:07;;;;;;;11.05;3.70;;;;;;;11.45;48.31;100964.63;5053486;28;20393;-55
2021/11/30 01:20:33;;;;;;;10.40;3.60;;;;;;;11.45;48.26;100960.13;5053147;28;20121;-55
2021/11/30 01:22:58;;;;;;;15.13;3.88;;;;;;;11.47;47.79;100955.47;5053232;28;20037;-55
2021/11/30 01:25:24;;;;;;;8.95;2.78;;;;;;;11.49;47.66;100947.31;5056512;28;20108;-55
2021/11/30 01:27:50;;;;;;;6.68;2.97;;;;;;;11.46;48.28;100944.88;5057211;28;20029;-55
2021/11/30 01:30:15;;;;;;;10.38;3.00;;;;;;;11.50;47.53;100954.38;5056920;28;20045;-55
2021/11/30 01:32:42;;;;;;;5.90;2.83;;;;;;;11.49;47.70;100942.78;5055890;28;20029;-55
2021/11/30 01:35:09;;;;;;;7.63;2.65;;;;;;;11.50;47.88;100932.91;5057316;28;20125;-55
2021/11/30 01:37:34;;;;;;;4.20;2.40;;;;;;;11.51;47.56;100934.59;5056888;28;20473;-55
2021/11/30 01:40:00;;;;;;;6.75;3.20;;;;;;;11.49;47.81;100915.13;5057292;28;20036;-55
2021/11/30 01:42:26;;;;;;;6.38;2.42;;;;;;;11.55;47.19;100925.31;5057061;28;20025;-55
2021/11/30 01:44:56;;;;;;;6.35;2.78;;;;;;;11.47;47.54;100904.50;5056731;28;20029;-55
2021/11/30 01:50:11;;;;;;;5.45;1.88;;;;;;;11.48;48.17;100927.66;5055933;28;20037;-55
2021/11/30 01:52:37;;;;;;;8.35;2.17;;;;;;;11.49;47.52;100923.16;5055507;28;20025;-55
2021/11/30 01:55:04;;;;;;;3.45;1.65;;;;;;;11.46;47.38;100915.38;5056737;28;20493;-55
2021/11/30 01:57:29;;;;;;;4.45;2.55;;;;;;;11.48;47.93;100918.75;5056694;28;20435;-55
2021/11/30 01:59:55;;;;;;;3.47;1.92;;;;;;;11.47;47.72;100901.81;5056481;28;20140;-55
2021/11/30 02:02:21;;;;;;;3.70;1.65;;;;;;;11.48;48.17;100905.34;5056533;28;20465;-55
2021/11/30 02:04:47;;;;;;;6.88;1.70;;;;;;;11.43;47.72;100895.03;5056277;28;20033;-55
2021/11/30 02:07:13;;;;;;;5.30;2.22;;;;;;;11.45;48.08;100903.78;5056466;28;20418;-55
2021/11/30 02:09:39;;;;;;;4.82;2.47;;;;;;;11.41;48.18;100890.78;5038350;28;20029;-55
2021/11/30 02:12:06;;;;;;;4.82;1.30;;;;;;;11.44;48.59;100893.22;5056438;28;20358;-55
2021/11/30 02:14:33;;;;;;;3.03;1.50;;;;;;;11.45;48.05;100893.06;5056199;28;20048;-55
2021/11/30 02:17:00;;;;;;;5.43;1.63;;;;;;;11.44;48.37;100885.16;5056247;28;20060;-55
2021/11/30 02:19:26;;;;;;;2.35;1.58;;;;;;;11.36;48.13;100874.25;5056109;28;20394;-55
2021/11/30 02:21:51;;;;;;;6.72;1.45;;;;;;;11.33;48.17;100866.47;5056205;28;20083;-55
2021/11/30 02:24:16;;;;;;;4.03;1.25;;;;;;;11.36;48.24;100868.91;5054818;28;20032;-55
2021/11/30 02:26:42;;;;;;;4.25;2.83;;;;;;;11.32;48.39;100864.75;5055914;28;20020;-55
2021/11/30 02:29:09;;;;;;;4.53;1.75;;;;;;;11.30;48.80;100861.38;5054379;28;20488;-55
2021/11/30 02:31:46;;;;;;;3.35;1.20;;;;;;;11.29;48.65;100849.78;5054823;28;20033;-55
2021/11/30 02:34:13;;;;;;;4.88;1.83;;;;;;;11.26;48.36;100830.44;5056004;28;20052;-55
2021/11/30 02:39:10;;;;;;;2.30;1.38;;;;;;;11.30;48.71;100823.84;5054348;28;20064;-55
2021/11/30 02:41:37;;;;;;;7.63;1.40;;;;;;;11.30;48.58;100813.97;5054679;28;20025;-55
2021/11/30 02:44:03;;;;;;;3.15;1.70;;;;;;;11.29;48.81;100806.03;5055881;28;20029;-55
2021/11/30 02:46:31;;;;;;;4.18;1.40;;;;;;;11.32;48.54;100800.41;5055696;28;20103;-55
2021/11/30 02:48:58;;;;;;;1.92;1.40;;;;;;;11.31;48.22;100796.03;5055397;28;20029;-54
2021/11/30 02:51:23;;;;;;;8.88;1.45;;;;;;;11.31;48.52;100793.34;5055884;28;20466;-55
2021/11/30 02:53:49;;;;;;;6.68;2.38;;;;;;;11.32;48.63;100789.69;5055439;28;20082;-54
2021/11/30 02:56:14;;;;;;;3.85;1.27;;;;;;;11.32;48.36;100768.22;5055615;28;20110;-54
2021/11/30 02:58:40;;;;;;;4.25;1.50;;;;;;;11.31;48.91;100766.53;5055159;28;20466;-55
2021/11/30 03:01:07;;;;;;;8.20;1.35;;;;;;;11.30;48.47;100760.34;5054532;28;20076;-55
2021/11/30 03:03:32;;;;;;;2.75;1.45;;;;;;;11.29;48.57;100764.00;5055283;28;20024;-55
2021/11/30 03:05:58;;;;;;;2.33;1.25;;;;;;;11.30;48.80;100754.97;5054043;28;20021;-55
2021/11/30 03:08:23;;;;;;;7.03;1.55;;;;;;;11.30;48.75;100749.63;5055263;28;20029;-54
2021/11/30 03:10:49;;;;;;;3.15;1.30;;;;;;;11.27;49.16;100744.50;5055115;28;20033;-55
2021/11/30 03:13:14;;;;;;;4.25;1.50;;;;;;;11.30;49.01;100748.75;5055232;28;20112;-54
2021/11/30 03:15:40;;;;;;;2.63;1.20;;;;;;;11.25;48.91;100733.06;5054987;28;20029;-55
2021/11/30 03:18:05;;;;;;;3.80;1.95;;;;;;;11.28;48.99;100737.31;5054944;28;20079;-55
2021/11/30 03:20:31;;;;;;;2.15;1.40;;;;;;;11.28;48.51;100723.91;5054781;28;20029;-55
2021/11/30 03:22:56;;;;;;;5.18;1.60;;;;;;;11.26;49.68;100720.50;5054967;28;20085;-54
2021/11/30 03:25:21;;;;;;;5.13;1.27;;;;;;;11.25;49.76;100710.78;5053508;28;20117;-55
2021/11/30 03:27:48;;;;;;;3.83;1.60;;;;;;;11.26;49.41;100723.19;5054939;28;20089;-54
2021/11/30 03:30:15;;;;;;;2.13;1.38;;;;;;;11.27;49.37;100715.03;5054470;28;20049;-55
2021/11/30 03:35:24;;;;;;;1.65;1.15;;;;;;;11.25;49.33;100697.38;5054436;28;20055;-55
2021/11/30 03:37:50;;;;;;;4.75;1.33;;;;;;;11.18;49.23;100696.22;5054475;28;20029;-55
2021/11/30 03:40:16;;;;;;;2.67;1.20;;;;;;;11.22;49.64;100697.66;5036853;28;20458;-54
2021/11/30 03:42:41;;;;;;;2.05;1.35;;;;;;;11.23;49.69;100693.97;5053519;28;20457;-55
2021/11/30 03:45:07;;;;;;;5.22;1.23;;;;;;;11.20;49.94;100699.59;5054631;28;20588;-55
2021/11/30 03:47:32;;;;;;;4.30;1.75;;;;;;;11.18;49.81;100683.66;5054024;28;20025;-54
2021/11/30 03:49:58;;;;;;;2.85;1.15;;;;;;;11.19;50.05;100687.19;5054809;28;20378;-55
2021/11/30 03:52:23;;;;;;;6.32;1.60;;;;;;;11.16;49.60;100676.75;5054321;28;20107;-55
2021/11/30 03:54:49;;;;;;;2.22;1.27;;;;;;;11.18;50.22;100675.63;5054458;28;20028;-54
2021/11/30 03:57:14;;;;;;;1.80;1.42;;;;;;;11.18;50.05;100664.91;5053981;28;20478;-55
2021/11/30 03:59:40;;;;;;;4.15;2.65;;;;;;;11.21;50.26;100682.53;5053061;28;20040;-55
2021/11/30 04:02:05;;;;;;;2.45;1.73;;;;;;;11.20;50.34;100673.63;5054284;28;20029;-54
2021/11/30 04:04:34;;;;;;;2.22;1.73;;;;;;;11.20;50.57;100672.78;5054401;28;20100;-54
2021/11/30 04:07:00;;;;;;;1.83;1.60;;;;;;;11.26;50.47;100669.56;5052877;28;20036;-55
2021/11/30 04:09:26;;;;;;;2.42;1.58;;;;;;;11.29;50.74;100671.97;5053128;28;20458;-54
2021/11/30 04:11:53;;;;;;;6.63;1.52;;;;;;;11.30;50.34;100662.94;5054312;28;20032;-55
2021/11/30 04:14:18;;;;;;;3.75;1.95;;;;;;;11.29;49.73;100663.94;5052705;28;20107;-54
2021/11/30 04:16:44;;;;;;;3.47;1.73;;;;;;;11.29;50.14;100656.75;5054052;28;20063;-54
2021/11/30 04:19:10;;;;;;;3.13;2.05;;;;;;;11.31;50.64;100665.47;5053896;28;20025;-54
2021/11/30 04:21:36;;;;;;;2.25;1.83;;;;;;;11.36;49.84;100652.50;5054084;28;20056;-54
2021/11/30 04:24:02;;;;;;;1.65;1.55;;;;;;;11.39;50.84;100646.03;5052476;28;20036;-54
2021/11/30 04:26:27;;;;;;;2.72;2.05;;;;;;;11.43;50.33;100652.81;5052536;28;20021;-54
2021/11/30 04:28:54;;;;;;;3.45;2.28;;;;;;;11.44;50.65;100638.41;5053831;28;20048;-54
2021/11/30 04:31:19;;;;;;;2.63;2.03;;;;;;;11.42;50.36;100649.28;5053695;28;20028;-54
2021/11/30 04:33:45;;;;;;;3.20;2.08;;;;;;;11.40;50.69;100642.34;5053858;28;20562;-54
2021/11/30 04:36:10;;;;;;;3.13;2.15;;;;;;;11.44;51.16;100641.97;5053449;28;20033;-54
2021/11/30 04:38:37;;;;;;;2.85;1.75;;;;;;;11.44;50.67;100643.78;5053698;28;20048;-55
2021/11/30 04:41:03;;;;;;;4.38;2.67;;;;;;;11.40;50.58;100637.00;5053681;28;20107;-54
2021/11/30 04:43:35;;;;;;;4.47;2.60;;;;;;;11.46;50.90;100639.97;5053805;28;20536;-55
2021/11/30 04:46:06;;;;;;;3.85;2.35;;;;;;;11.49;50.38;100625.44;5053644;28;20024;-55
2021/11/30 04:48:33;;;;;;;4.07;2.40;;;;;;;11.51;50.80;100634.19;5053882;28;20029;-55
2021/11/30 04:51:00;;;;;;;4.07;2.20;;;;;;;11.52;51.10;100631.38;5053417;28;20021;-55
2021/11/30 04:53:27;;;;;;;4.05;2.42;;;;;;;11.56;51.52;100630.09;5053619;28;20039;-55
2021/11/30 04:55:53;;;;;;;2.65;2.05;;;;;;;11.61;51.21;100635.88;5053174;28;20025;-54
2021/11/30 04:58:18;;;;;;;5.22;2.38;;;;;;;11.63;50.81;100628.56;5053353;28;20032;-54
2021/11/30 05:00:45;;;;;;;4.38;2.95;;;;;;;11.66;50.90;100627.44;5055645;28;20061;-55
2021/11/30 05:03:10;;;;;;;2.90;2.60;;;;;;;11.69;51.39;100624.50;5057872;28;20485;-54
2021/11/30 05:05:36;;;;;;;4.05;2.33;;;;;;;11.71;51.50;100627.88;5058014;28;20031;-54
2021/11/30 05:08:02;;;;;;;3.28;2.20;;;;;;;11.73;50.99;100616.97;5057552;28;20371;-55
2021/11/30 05:10:28;;;;;;;4.72;2.63;;;;;;;11.76;51.50;100617.56;5057630;28;20466;-55
2021/11/30 05:12:53;;;;;;;3.58;3.00;;;;;;;11.76;50.95;100601.47;5057286;28;20078;-54
2021/11/30 05:15:19;;;;;;;5.63;2.75;;;;;;;11.80;51.77;100596.66;5055990;28;20029;-54
2021/11/30 05:17:44;;;;;;;3.47;2.25;;;;;;;11.80;51.58;100592.16;5055880;28;20021;-54
2021/11/30 05:20:10;;;;;;;3.45;2.67;;;;;;;11.84;51.39;100608.78;5057059;28;20463;-55
2021/11/30 05:22:37;;;;;;;3.13;2.65;;;;;;;11.87;51.55;100604.00;5056080;28;20029;-55
2021/11/30 05:25:03;;;;;;;3.92;2.78;;;;;;;11.87;50.98;100604.00;5056894;28;20025;-54
2021/11/30 05:27:31;;;;;;;4.25;2.75;;;;;;;11.91;51.99;100604.56;5057321;28;20128;-55
2021/11/30 05:29:57;;;;;;;2.58;2.38;;;;;;;11.92;51.01;100595.53;5056868;28;20048;-55
2021/11/30 05:32:22;;;;;;;3.17;2.42;;;;;;;11.93;52.03;100595.38;5056921;28;20136;-55
2021/11/30 05:34:48;;;;;;;2.70;2.20;;;;;;;11.97;52.09;100604.84;5057004;28;20111;-55
2021/11/30 05:37:13;;;;;;;4.22;2.78;;;;;;;11.99;52.13;100607.38;5056850;28;20104;-55
2021/11/30 05:39:40;;;;;;;6.00;2.50;;;;;;;12.00;51.83;100598.34;5057129;28;20394;-55
2021/11/30 05:42:07;;;;;;;4.25;2.30;;;;;;;12.03;51.99;100590.81;5055507;28;20481;-54
2021/11/30 05:44:33;;;;;;;3.53;2.40;;;;;;;12.06;52.06;100587.84;5056962;28;20024;-55
2021/11/30 05:46:58;;;;;;;3.20;2.08;;;;;;;12.08;52.02;100575.16;5056807;28;20064;-55
2021/11/30 05:49:24;;;;;;;3.67;2.20;;;;;;;12.14;52.29;100590.66;5056670;28;20024;-55
2021/11/30 05:51:49;;;;;;;4.03;2.45;;;;;;;12.19;52.00;100593.78;5056874;28;20079;-55
2021/11/30 05:54:15;;;;;;;3.30;2.22;;;;;;;12.23;51.24;100592.47;5056368;28;20063;-54
2021/11/30 05:56:40;;;;;;;3.88;2.33;;;;;;;12.28;51.65;100592.06;5056403;28;20029;-56
2021/11/30 05:59:06;;;;;;;3.83;2.53;;;;;;;12.30;52.48;100591.91;5056302;28;20056;-55
2021/11/30 06:01:33;;;;;;;2.95;2.25;;;;;;;12.33;51.96;100594.28;5056442;28;20036;-55
2021/11/30 06:04:00;;;;;;;4.32;2.58;;;;;;;12.38;52.41;100608.13;5056866;28;20029;-55
2021/11/30 06:06:31;;;;;;;7.30;2.67;;;;;;;12.40;52.21;100598.06;5056082;28;20029;-54
2021/11/30 06:08:57;;;;;;;3.70;3.00;;;;;;;12.42;52.27;100609.53;5055903;28;20543;-55
2021/11/30 06:11:22;;;;;;;4.32;2.70;;;;;;;12.46;51.49;100601.03;5056213;28;20025;-55
2021/11/30 06:13:48;;;;;;;3.92;2.47;;;;;;;12.47;51.93;100601.88;5056139;28;20478;-55
2021/11/30 06:16:14;;;;;;;4.65;2.63;;;;;;;12.49;52.60;100605.25;5056083;28;20028;-54
2021/11/30 06:18:39;;;;;;;4.45;2.53;;;;;;;12.50;51.85;100609.66;5056287;28;20025;-54
2021/11/30 06:21:05;;;;;;;3.78;3.03;;;;;;;12.54;52.64;100602.97;5056069;28;20052;-55
2021/11/30 06:23:30;;;;;;;3.95;2.65;;;;;;;12.57;52.07;100600.00;5056343;28;20106;-54
2021/11/30 06:25:55;;;;;;;4.70;2.95;;;;;;;12.60;52.32;100607.75;5055864;28;20028;-54
2021/11/30 06:28:21;;;;;;;7.18;3.80;;;;;;;12.63;52.72;100602.09;5054718;28;20036;-55
2021/11/30 06:30:46;;;;;;;5.75;3.30;;;;;;;12.65;52.07;100597.41;5055678;28;20064;-55
2021/11/30 06:33:12;;;;;;;5.10;3.05;;;;;;;12.67;52.81;100608.88;5054020;28;20124;-55
2021/11/30 06:35:37;;;;;;;4.30;2.80;;;;;;;12.71;52.51;100610.25;5055808;28;20543;-55
2021/11/30 06:38:04;;;;;;;3.45;2.97;;;;;;;12.73;52.52;100609.09;5055865;28;20448;-56
2021/11/30 06:40:29;;;;;;;5.60;2.70;;;;;;;12.74;52.45;100599.22;5055951;28;20413;-56
2021/11/30 06:42:55;;;;;;;3.38;2.58;;;;;;;12.79;52.57;100602.28;5054642;28;20029;-55
2021/11/30 06:45:20;;;;;;;5.13;3.08;;;;;;;12.83;52.58;100617.16;5055783;28;20094;-55
2021/11/30 06:47:45;;;;;;;4.05;3.42;;;;;;;12.86;52.91;100608.78;5055609;28;20060;-55
2021/11/30 06:50:11;;;;;;;4.68;2.20;;;;;;;12.88;52.96;100612.16;5055549;28;20021;-54
2021/11/30 06:52:38;;;;;;;4.32;2.92;;;;;;;12.89;51.81;100608.50;5056016;28;20105;-54
2021/11/30 06:55:05;;;;;;;3.75;2.88;;;;;;;12.90;53.03;100602.09;5055558;28;20116;-54
2021/11/30 06:57:30;;;;;;;6.90;3.50;;;;;;;12.90;52.79;100599.41;5055422;28;20021;-55
2021/11/30 07:00:01;;;;;;;5.30;3.83;;;;;;;12.93;53.25;100596.41;5055442;28;20036;-54
2021/11/30 07:02:26;;;;;;;6.22;3.63;;;;;;;12.99;53.08;100601.19;5054091;28;20020;-55
2021/11/30 07:04:54;;;;;;;7.90;3.13;;;;;;;13.01;51.98;100601.91;5055317;28;20100;-54
2021/11/30 07:15:08;;;;;;;6.15;2.50;;;;;;;12.99;52.18;100598.50;5055381;28;20029;-54
2021/11/30 07:17:34;;;;;;;5.13;2.92;;;;;;;13.00;52.79;100610.97;5055209;28;20036;-54
2021/11/30 07:20:00;;;;;;;4.53;2.75;;;;;;;13.02;53.16;100608.13;5054929;28;20465;-54
2021/11/30 07:22:25;;;;;;;6.07;2.50;;;;;;;13.00;53.33;100600.22;5053118;28;20426;-54
2021/11/30 07:24:51;;;;;;;2.45;2.25;;;;;;;12.99;52.27;100603.88;5053675;28;20029;-54
2021/11/30 07:27:16;;;;;;;3.83;2.75;;;;;;;13.04;52.31;100590.84;5054644;28;20025;-55
2021/11/30 07:29:42;;;;;;;4.95;2.63;;;;;;;13.05;52.88;100597.91;5054643;28;20032;-54
2021/11/30 07:32:08;;;;;;;6.35;2.97;;;;;;;13.08;52.94;100603.03;5054739;28;20470;-54
2021/11/30 07:34:34;;;;;;;3.97;2.33;;;;;;;13.11;52.44;100596.50;5054808;28;20017;-54
2021/11/30 07:36:59;;;;;;;2.92;2.33;;;;;;;13.10;53.02;100595.66;5053464;28;20047;-55
2021/11/30 07:39:24;;;;;;;5.50;2.53;;;;;;;13.14;53.35;100594.38;5053505;28;20032;-54
2021/11/30 07:41:50;;;;;;;4.10;2.60;;;;;;;13.14;53.48;100597.06;5054598;28;20031;-55
2021/11/30 07:44:15;;;;;;;3.72;2.65;;;;;;;13.18;52.47;100587.66;5054624;28;20021;-54
2021/11/30 07:46:41;;;;;;;3.70;2.92;;;;;;;13.23;52.52;100590.75;5054277;28;20045;-54
2021/11/30 07:49:06;;;;;;;4.50;2.70;;;;;;;13.24;53.53;100587.06;5054427;28;20075;-54
2021/11/30 07:51:32;;;;;;;4.47;2.90;;;;;;;13.26;52.44;100590.44;5054712;28;20025;-54
2021/11/30 07:53:58;;;;;;;7.38;3.58;;;;;;;13.28;53.30;100596.53;5054223;28;20021;-55
2021/11/30 07:56:24;;;;;;;2.47;2.28;;;;;;;13.27;52.57;100581.38;5054264;28;20033;-54
2021/11/30 07:58:50;;;;;;;4.18;2.65;;;;;;;13.28;52.81;100580.41;5054664;28;20036;-54
2021/11/30 08:01:16;;;;;;;6.15;2.65;;;;;;;13.28;53.38;100572.31;5054227;28;20381;-54
2021/11/30 08:03:43;;;;;;;3.78;2.80;;;;;;;13.29;53.72;100574.00;5054351;28;20029;-54
2021/11/30 08:06:09;;;;;;;3.83;2.50;;;;;;;13.30;53.45;100574.84;5054299;28;20029;-54
2021/11/30 08:08:34;;;;;;;3.30;2.42;;;;;;;13.28;53.71;100572.31;5053921;28;20075;-54
2021/11/30 08:10:59;;;;;;;3.50;2.38;;;;;;;13.36;53.86;100583.16;5053937;28;20021;-55
2021/11/30 08:13:25;;;;;;;2.67;2.10;;;;;;;13.36;53.44;100579.63;5053922;28;20044;-55
2021/11/30 08:15:53;;;;;;;3.20;2.58;;;;;;;13.43;52.85;100587.94;5053963;28;20029;-54
2021/11/30 08:18:19;;;;;;;4.13;2.20;;;;;;;13.49;53.94;100590.00;5053802;28;20025;-54
2021/11/30 08:20:44;;;;;;;2.83;1.98;;;;;;;13.53;53.22;100586.00;5053661;28;20497;-54
2021/11/30 08:23:12;;;;;;;3.25;2.25;;;;;;;13.54;53.93;100590.41;5053941;28;20406;-54
2021/11/30 08:25:37;;;;;;;3.85;2.20;;;;;;;13.58;53.23;100592.63;5053733;28;20036;-54
2021/11/30 08:28:04;;;;;;;2.78;2.13;;;;;;;13.61;53.78;100602.22;5054011;28;20385;-54
2021/11/30 08:30:29;;;;;;;6.03;2.72;;;;;;;13.63;52.68;100592.13;5053765;28;20048;-54
2021/11/30 08:32:54;;;;;;;2.88;2.03;;;;;;;13.66;53.28;100599.91;5053597;28;20024;-55
2021/11/30 08:35:20;;;;;;;3.17;2.40;;;;;;;13.68;53.46;100593.38;5053163;28;20107;-55
2021/11/30 08:37:45;;;;;;;5.25;1.90;;;;;;;13.72;53.81;100592.06;5053889;28;20021;-55
2021/11/30 08:40:12;;;;;;;3.85;2.35;;;;;;;13.75;53.86;100594.47;5053975;28;20032;-55
2021/11/30 08:42:37;;;;;;;13.25;2.85;;;;;;;13.76;53.98;100595.31;5053722;28;20086;-54
2021/11/30 08:45:04;;;;;;;2.28;2.05;;;;;;;13.78;53.98;100587.91;5053946;28;20478;-54
2021/11/30 08:47:29;;;;;;;2.05;1.73;;;;;;;13.83;53.68;100588.28;5052533;28;20091;-54
2021/11/30 08:49:55;;;;;;;1.75;1.60;;;;;;;13.86;52.88;100590.66;5054106;28;20025;-55
2021/11/30 08:52:26;;;;;;;3.38;2.05;;;;;;;13.90;53.87;100595.56;5054252;28;20024;-54
2021/11/30 08:54:52;;;;;;;2.38;1.80;;;;;;;13.93;54.05;100591.75;5053601;28;20031;-54
2021/11/30 08:57:19;;;;;;;1.83;1.55;;;;;;;13.96;53.56;100588.72;5053670;28;20024;-55
2021/11/30 08:59:44;;;;;;;4.45;1.63;;;;;;;13.97;53.90;100587.72;5053834;28;20021;-55
2021/11/30 09:02:10;;;;;;;1.95;1.60;;;;;;;14.00;54.15;100590.09;5053781;28;20021;-54
2021/11/30 09:04:35;;;;;;;1.55;1.30;;;;;;;14.03;53.63;100589.78;5053633;28;20032;-54
2021/11/30 09:07:01;;;;;;;2.58;1.88;;;;;;;14.05;54.23;100582.41;5053976;28;20401;-55
2021/11/30 09:09:27;;;;;;;2.42;1.73;;;;;;;14.08;53.42;100587.47;5054112;28;20024;-55
2021/11/30 09:11:52;;;;;;;1.80;1.35;;;;;;;14.11;53.52;100575.53;5053496;28;20032;-55
2021/11/30 09:14:22;;;;;;;2.15;1.88;;;;;;;14.11;53.30;100570.16;5053284;28;20037;-55
2021/11/30 09:16:55;;;;;;;1.58;1.30;;;;;;;14.19;54.07;100572.88;5052199;28;20021;-55
2021/11/30 09:19:21;;;;;;;1.83;1.45;;;;;;;14.23;54.36;100568.88;5053316;28;20021;-55
2021/11/30 09:21:47;;;;;;;3.13;1.75;;;;;;;14.27;54.19;100565.69;5053401;28;20025;-55
2021/11/30 09:24:12;;;;;;;1.55;1.45;;;;;;;14.28;53.25;100580.03;5052470;28;20047;-55
2021/11/30 09:26:38;;;;;;;1.60;1.50;;;;;;;14.29;53.03;100569.06;5053699;28;20025;-55
2021/11/30 09:29:05;;;;;;;2.28;1.58;;;;;;;14.30;53.37;100560.00;5053335;28;20116;-55
2021/11/30 09:31:30;;;;;;;1.52;1.23;;;;;;;14.32;54.03;100568.78;5053370;28;20060;-55
2021/11/30 09:34:01;;;;;;;1.30;1.20;;;;;;;14.35;53.91;100575.75;5053354;28;20025;-55
2021/11/30 09:36:27;;;;;;;2.15;1.45;;;;;;;14.35;54.07;100573.88;5052174;28;20028;-55
2021/11/30 09:38:52;;;;;;;1.50;1.20;;;;;;;14.37;53.51;100566.50;5053454;28;20390;-55
2021/11/30 09:41:18;;;;;;;1.88;1.50;;;;;;;14.38;53.25;100556.53;5052109;28;20027;-55
2021/11/30 09:43:43;;;;;;;2.17;1.30;;;;;;;14.43;53.23;100555.03;5053198;28;20028;-55
2021/11/30 09:46:09;;;;;;;1.52;1.20;;;;;;;14.47;53.50;100553.72;5038142;28;20021;-55
2021/11/30 09:48:35;;;;;;;1.02;0.93;;;;;;;14.49;53.28;100553.56;5057121;28;20040;-55
2021/11/30 09:51:01;;;;;;;2.83;1.38;;;;;;;14.50;53.31;100561.50;5039147;28;20477;-55
2021/11/30 09:53:29;;;;;;;3.13;1.25;;;;;;;14.52;54.15;100548.69;5056900;28;20108;-55
2021/11/30 09:55:55;;;;;;;2.45;1.48;;;;;;;14.56;54.43;100555.47;5056959;28;20029;-55
2021/11/30 09:58:21;;;;;;;1.90;1.70;;;;;;;14.60;54.32;100555.16;5055513;28;20017;-55
2021/11/30 10:00:48;;;;;;;2.28;1.42;;;;;;;14.62;53.96;100559.38;5056906;28;20063;-55
2021/11/30 10:03:14;;;;;;;1.85;1.63;;;;;;;14.63;53.93;100561.03;5056901;28;20060;-54
2021/11/30 10:05:40;;;;;;;1.90;1.33;;;;;;;14.67;53.37;100566.97;5056715;28;20028;-55
2021/11/30 10:08:07;;;;;;;3.45;1.85;;;;;;;14.69;53.69;100568.47;5055464;28;20031;-55
2021/11/30 10:10:38;;;;;;;3.45;2.47;;;;;;;14.72;53.59;100573.56;5056827;28;20389;-55
2021/11/30 10:13:04;;;;;;;2.15;1.45;;;;;;;14.74;54.49;100568.00;5056985;28;20554;-55
2021/11/30 10:15:31;;;;;;;4.65;2.28;;;;;;;14.75;53.36;100564.28;5055434;28;20060;-55
2021/11/30 10:18:19;;;;;;;8.40;4.72;;;;;;;14.78;54.12;100569.38;5055472;28;20056;-55
2021/11/30 10:20:47;;;;;;;3.60;2.80;;;;;;;14.75;53.37;100570.53;5056627;28;20021;-55
2021/11/30 10:23:13;;;;;;;4.65;2.72;;;;;;;14.76;53.19;100582.16;5055561;28;20537;-55
2021/11/30 10:25:40;;;;;;;4.85;3.17;;;;;;;14.78;53.73;100590.94;5056656;28;20056;-55
2021/11/30 10:28:11;;;;;;;7.55;3.83;;;;;;;14.81;53.41;100582.53;5056242;28;20079;-55
2021/11/30 10:30:40;;;;;;;4.60;3.83;;;;;;;14.81;53.56;100579.81;5055984;28;20041;-55
2021/11/30 10:33:07;;;;;;;5.28;2.70;;;;;;;14.79;54.44;100588.09;5056105;28;20071;-55
2021/11/30 10:35:33;;;;;;;6.95;4.72;;;;;;;14.81;54.63;100583.38;5056303;28;20032;-55
2021/11/30 10:38:01;;;;;;;3.97;3.53;;;;;;;14.81;53.65;100587.91;5055984;28;20033;-55
2021/11/30 10:40:32;;;;;;;2.58;2.35;;;;;;;14.80;54.52;100589.75;5056093;28;20394;-55
2021/11/30 10:43:06;;;;;;;2.63;2.05;;;;;;;14.83;53.77;100583.19;5055905;28;20025;-55
2021/11/30 10:45:43;;;;;;;3.03;2.70;;;;;;;14.83;54.21;100589.44;5054682;28;20056;-55
2021/11/30 10:48:08;;;;;;;3.63;2.83;;;;;;;14.84;54.92;100590.28;5055913;28;20473;-55
2021/11/30 10:50:42;;;;;;;3.33;2.72;;;;;;;14.85;54.02;100586.59;5055956;28;20032;-55
2021/11/30 10:53:17;;;;;;;3.38;2.97;;;;;;;14.87;53.80;100589.97;5055948;28;20020;-55
2021/11/30 10:55:56;;;;;;;4.38;2.80;;;;;;;14.88;54.51;100587.09;5055982;28;20033;-55
2021/11/30 10:58:25;;;;;;;5.80;3.42;;;;;;;14.90;53.75;100589.66;5055298;28;20036;-55
2021/11/30 11:00:51;;;;;;;7.32;3.47;;;;;;;14.89;54.91;100590.63;5056111;28;20028;-55
2021/11/30 11:03:20;;;;;;;7.97;3.95;;;;;;;14.94;54.11;100585.59;5055729;28;20020;-55
2021/11/30 11:08:42;;;;;;;4.88;3.40;;;;;;;15.00;53.84;100572.31;5055485;28;20040;-55
2021/11/30 11:11:08;;;;;;;5.53;3.25;;;;;;;14.99;54.04;100569.78;5055688;28;20021;-55
2021/11/30 11:13:35;;;;;;;7.72;3.75;;;;;;;15.05;54.42;100569.09;5055217;28;20041;-55
2021/11/30 11:16:05;;;;;;;17.38;6.28;;;;;;;15.06;54.83;100565.41;5055196;28;20125;-55
2021/11/30 11:18:41;;;;;;;34.00;11.07;;;;;;;15.10;53.80;100558.69;5055020;28;20036;-55
2021/11/30 11:21:15;;;;;;;15.88;6.90;;;;;;;15.14;53.99;100560.03;5055227;28;20466;-55
2021/11/30 11:23:44;;;;;;;25.38;8.77;;;;;;;15.17;54.90;100575.91;5055251;28;20029;-55
2021/11/30 11:26:29;;;;;;;15.48;5.85;;;;;;;15.20;53.58;100580.97;5054971;28;20016;-55
2021/11/30 11:28:57;;;;;;;17.38;8.35;;;;;;;15.22;54.93;100578.94;5055271;28;20060;-55
2021/11/30 11:31:24;;;;;;;11.65;6.35;;;;;;;15.24;53.54;100581.50;5054777;28;20049;-55
2021/11/30 11:33:50;;;;;;;33.35;13.95;;;;;;;15.29;54.99;100579.13;5054879;28;20021;-55
2021/11/30 11:36:15;;;;;;;7.93;5.38;;;;;;;15.32;54.93;100586.91;5054834;28;20040;-55
2021/11/30 11:38:41;;;;;;;8.45;4.15;;;;;;;15.33;55.02;100592.13;5054870;28;20043;-54
2021/11/30 11:41:08;;;;;;;5.18;3.58;;;;;;;15.35;54.55;100590.13;5054908;28;20037;-55
2021/11/30 11:43:35;;;;;;;4.75;3.38;;;;;;;15.36;54.95;100586.38;5054676;28;20020;-54